Overview Statistics Trail Chart Weather Telemetry Raw packets
 

This is the latest recevied weather packets stored in our database for station/object KU4DD. If no packets are shown the sender has not sent any weather packets the latest 10 day(s).

<< 14 15 16 17 18 19 20 >>
Time Temp. Humidity Pressure Rain* Wind** Luminosity Snow
1787926161 24.44° C 92% 1016.9 hPa 0 mm - 807 W/m² -
1787924922 23.33° C 96% 1016.9 hPa 0 mm - 415 W/m² -
1787924605 23.33° C 97% 1016.6 hPa 0 mm - 483 W/m² -
1787920595 22.22° C 98% 1016.6 hPa 0 mm - 200 W/m² -
1787919646 21.67° C 98% 1016.6 hPa 0 mm - 91 W/m² -
1787918100 21.67° C 98% 1016.6 hPa 0 mm - 37 W/m² -
1787917169 21.67° C 98% 1016.3 hPa 0 mm - 26 W/m² -
1787916853 21.67° C 98% 1016.3 hPa 0 mm - 23 W/m² -
1787915917 21.67° C 98% 1016.3 hPa 0 mm - 19 W/m² -
1787915278 21.11° C 98% 1016.3 hPa 0 mm - 16 W/m² -
1787912516 20.56° C 98% 1015.9 hPa 0 mm - 0 W/m² -
1787911279 20.56° C 98% 1015.6 hPa 0 mm - 0 W/m² -
1787907578 21.11° C 98% 1014.9 hPa 0 mm - 0 W/m² -
1787907262 21.11° C 98% 1014.6 hPa 0 mm - 0 W/m² -
1787906950 21.11° C 98% 1014.6 hPa 0 mm - 0 W/m² -
1787903846 21.11° C 98% 1014.9 hPa 0 mm - 0 W/m² -
1787903523 21.11° C 98% 1014.9 hPa 0 mm - 0 W/m² -
1787899512 21.11° C 98% 1014.9 hPa 0 mm - 0 W/m² -
1787898267 21.11° C 98% 1015.2 hPa 0.25 mm - 0 W/m² -
1787894235 21.67° C 98% 1015.2 hPa 0 mm - 0 W/m² -
1787890822 21.67° C 97% 1015.2 hPa 0 mm - 0 W/m² -
1787889272 21.67° C 97% 1015.2 hPa 0 mm - 0 W/m² -
1787888029 21.67° C 97% 1014.9 hPa 0 mm - 0 W/m² -
1787885554 21.67° C 97% 1015.2 hPa 0 mm - 0 W/m² -
1787884614 21.67° C 97% 1014.9 hPa 0 mm - 0 W/m² -

* Rain latest hour (hover to see other rain measurements)
** Current wind speed in m/s (hover to see current wind gust speed)